createdAt,value
2017-05-04T00:00:04.422Z,0
2017-05-04T00:01:13.221Z,0
2017-05-04T00:02:22.055Z,0
2017-05-04T00:03:31.524Z,0
2017-05-04T00:04:40.908Z,0
2017-05-04T00:05:49.814Z,0
2017-05-04T00:06:59.635Z,0
2017-05-04T00:08:08.869Z,0
2017-05-04T00:09:18.369Z,0
2017-05-04T00:10:27.504Z,0
2017-05-04T00:11:36.673Z,0
2017-05-04T00:12:46.688Z,0
2017-05-04T00:13:56.530Z,0
2017-05-04T00:15:05.771Z,0
2017-05-04T00:16:14.925Z,0
2017-05-04T00:17:23.716Z,0
2017-05-04T00:18:32.546Z,0
2017-05-04T00:19:41.350Z,0
2017-05-04T00:20:50.506Z,0
2017-05-04T00:22:00.262Z,0
2017-05-04T00:23:09.455Z,0
2017-05-04T00:24:19.393Z,0
2017-05-04T00:25:28.202Z,0
2017-05-04T01:25:15.275Z,0
2017-05-04T01:26:24.813Z,0
2017-05-04T01:27:34.338Z,0
2017-05-04T01:28:43.861Z,0
2017-05-04T01:29:53.413Z,0
2017-05-04T01:31:03.489Z,0
2017-05-04T01:32:13.058Z,0
2017-05-04T01:33:22.919Z,0
2017-05-04T01:34:32.847Z,0
2017-05-04T01:36:51.437Z,0
2017-05-04T01:38:01.312Z,0
2017-05-04T01:39:11.127Z,0
2017-05-04T01:40:20.711Z,0
2017-05-04T01:41:30.253Z,0
2017-05-04T01:42:40.393Z,0
2017-05-04T01:43:50.240Z,0
2017-05-04T01:44:59.739Z,0
2017-05-04T01:46:09.272Z,0
2017-05-04T01:47:19.178Z,0
2017-05-04T01:48:29.258Z,0
2017-05-04T01:49:39.084Z,0
2017-05-04T01:50:48.895Z,0
2017-05-04T01:51:58.410Z,0
2017-05-04T01:53:07.599Z,0
2017-05-04T01:54:17.671Z,0
2017-05-04T01:55:27.488Z,0
2017-05-04T01:56:37.347Z,0
2017-05-04T01:57:47.178Z,0
2017-05-04T01:58:57.002Z,0
2017-05-04T02:00:07.120Z,0
2017-05-04T02:01:16.634Z,0
2017-05-04T02:02:26.145Z,0
2017-05-04T02:03:35.977Z,0
2017-05-04T02:04:45.160Z,0
2017-05-04T02:05:55.232Z,0
2017-05-04T02:07:04.435Z,0
2017-05-04T02:08:13.949Z,0
2017-05-04T02:09:23.453Z,0
2017-05-04T02:10:32.958Z,0
2017-05-04T02:11:43.111Z,0
2017-05-04T02:12:52.938Z,0
2017-05-04T02:14:02.442Z,0
2017-05-04T02:15:12.012Z,0
2017-05-04T02:16:21.861Z,0
2017-05-04T02:17:31.992Z,0
2017-05-04T02:18:41.547Z,0
2017-05-04T02:19:51.568Z,0
2017-05-04T02:21:01.085Z,0
2017-05-04T02:22:10.580Z,0
2017-05-04T02:23:20.652Z,0
2017-05-04T02:24:30.516Z,0
2017-05-04T02:25:40.070Z,0
2017-05-04T02:26:49.895Z,0
2017-05-04T02:27:59.756Z,0
2017-05-04T02:29:09.551Z,0
2017-05-04T02:30:19.373Z,0
2017-05-04T02:31:29.032Z,0
2017-05-04T02:32:38.214Z,0
2017-05-04T02:33:48.073Z,0
2017-05-04T02:34:57.509Z,0
2017-05-04T02:36:07.052Z,0
2017-05-04T02:37:16.872Z,0
2017-05-04T02:38:26.376Z,0
2017-05-04T02:39:36.201Z,0
2017-05-04T02:40:45.949Z,0
2017-05-04T02:41:55.559Z,0
2017-05-04T02:43:05.054Z,0
2017-05-04T02:44:13.931Z,0
2017-05-04T02:45:23.442Z,0
2017-05-04T02:46:33.541Z,0
2017-05-04T02:47:43.381Z,0
2017-05-04T02:48:52.904Z,0
2017-05-04T02:50:02.427Z,0
2017-05-04T02:51:12.237Z,0
2017-05-04T02:52:22.352Z,0
2017-05-04T02:53:32.165Z,0
2017-05-04T02:54:41.800Z,0
2017-05-04T02:55:51.621Z,0
2017-05-04T02:57:01.197Z,0
2017-05-04T02:58:11.435Z,0
2017-05-04T02:59:21.264Z,0
2017-05-04T03:00:30.851Z,0
2017-05-04T03:01:40.677Z,0
2017-05-04T03:02:50.537Z,0
2017-05-04T03:04:00.389Z,0
2017-05-04T03:05:10.593Z,0
2017-05-04T03:06:19.775Z,0
2017-05-04T03:07:29.627Z,0
2017-05-04T03:08:39.136Z,0
2017-05-04T03:09:48.882Z,4
2017-05-04T03:10:58.713Z,4
2017-05-04T03:12:08.639Z,4
2017-05-04T03:13:18.500Z,4
2017-05-04T03:14:28.328Z,0
2017-05-04T03:15:38.401Z,4
2017-05-04T03:16:47.595Z,4
2017-05-04T03:17:57.146Z,4
2017-05-04T03:19:06.675Z,4
2017-05-04T03:20:16.489Z,8
2017-05-04T03:21:26.573Z,8
2017-05-04T03:22:35.779Z,12
2017-05-04T03:23:45.274Z,8
2017-05-04T03:24:55.137Z,12
2017-05-04T03:26:04.046Z,8
2017-05-04T03:27:13.800Z,8
2017-05-04T03:28:23.345Z,8
2017-05-04T03:29:33.178Z,8
2017-05-04T03:30:42.686Z,12
2017-05-04T03:31:52.598Z,12
2017-05-04T03:33:02.663Z,16
2017-05-04T03:34:12.576Z,16
2017-05-04T03:35:22.424Z,20
2017-05-04T03:36:31.950Z,16
2017-05-04T03:37:41.515Z,16
2017-05-04T03:38:51.301Z,16
2017-05-04T03:40:01.260Z,20
2017-05-04T03:41:11.148Z,20
2017-05-04T03:42:20.820Z,24
2017-05-04T03:43:30.036Z,32
2017-05-04T03:44:40.125Z,44
2017-05-04T03:45:49.971Z,60
2017-05-04T03:46:59.556Z,76
2017-05-04T03:48:09.414Z,100
2017-05-04T03:49:19.247Z,108
2017-05-04T03:50:29.322Z,112
2017-05-04T03:51:38.823Z,112
2017-05-04T03:52:48.643Z,116
2017-05-04T03:53:58.539Z,124
2017-05-04T03:55:08.113Z,140
2017-05-04T03:56:18.209Z,160
2017-05-04T03:57:27.817Z,184
2017-05-04T03:58:37.647Z,200
2017-05-04T03:59:47.471Z,212
2017-05-04T04:00:56.665Z,208
2017-05-04T04:02:06.798Z,212
2017-05-04T04:03:16.302Z,232
2017-05-04T04:04:26.131Z,252
2017-05-04T04:05:35.949Z,268
2017-05-04T04:06:45.448Z,276
2017-05-04T04:07:55.267Z,292
2017-05-04T04:09:05.099Z,312
2017-05-04T04:10:14.926Z,320
2017-05-04T04:11:24.751Z,312
2017-05-04T04:12:33.941Z,320
2017-05-04T04:13:44.012Z,328
2017-05-04T04:14:53.834Z,344
2017-05-04T04:16:03.374Z,348
2017-05-04T04:17:12.876Z,348
2017-05-04T04:18:22.691Z,344
2017-05-04T04:19:32.504Z,348
2017-05-04T04:20:42.336Z,352
2017-05-04T04:21:52.187Z,356
2017-05-04T04:23:02.023Z,372
2017-05-04T04:24:11.838Z,404
2017-05-04T04:25:21.598Z,420
2017-05-04T04:26:31.417Z,444
2017-05-04T04:27:41.326Z,468
2017-05-04T04:28:51.147Z,472
2017-05-04T04:30:00.373Z,484
2017-05-04T04:31:10.121Z,476
2017-05-04T04:32:19.754Z,468
2017-05-04T04:33:29.585Z,468
2017-05-04T04:34:39.084Z,480
2017-05-04T04:35:48.916Z,492
2017-05-04T04:36:58.980Z,516
2017-05-04T04:38:08.828Z,516
2017-05-04T04:39:18.663Z,504
2017-05-04T04:40:28.511Z,492
2017-05-04T04:41:38.024Z,476
2017-05-04T04:42:48.156Z,460
2017-05-04T04:43:58.001Z,460
2017-05-04T04:45:07.818Z,444
2017-05-04T04:46:17.352Z,460
2017-05-04T04:47:26.861Z,488
2017-05-04T04:48:37.007Z,492
2017-05-04T04:49:46.218Z,516
2017-05-04T04:50:55.755Z,520
2017-05-04T04:52:05.563Z,604
2017-05-04T04:53:15.404Z,636
2017-05-04T04:54:25.474Z,644
2017-05-04T04:55:35.298Z,636
2017-05-04T04:56:45.137Z,640
2017-05-04T04:57:55.050Z,696
2017-05-04T04:59:04.567Z,780
2017-05-04T05:00:14.660Z,840
2017-05-04T05:01:24.530Z,900
2017-05-04T05:02:34.362Z,960
2017-05-04T05:03:43.938Z,1016
2017-05-04T05:04:53.797Z,1104
2017-05-04T05:06:03.968Z,1224
2017-05-04T05:07:13.973Z,1332
2017-05-04T05:08:23.517Z,1444
2017-05-04T05:09:33.342Z,1552
2017-05-04T05:10:42.539Z,1656
2017-05-04T05:11:52.333Z,1684
2017-05-04T05:13:01.879Z,1628
2017-05-04T05:14:11.431Z,1612
2017-05-04T05:15:21.248Z,1640
2017-05-04T05:16:30.773Z,1692
2017-05-04T05:17:40.298Z,1748
2017-05-04T05:18:49.875Z,1792
2017-05-04T05:19:59.689Z,1840
2017-05-04T05:21:09.644Z,1884
2017-05-04T05:22:19.477Z,2000
2017-05-04T05:23:28.916Z,2132
2017-05-04T05:24:38.783Z,2276
2017-05-04T05:25:48.607Z,2296
2017-05-04T05:26:58.407Z,2292
2017-05-04T05:28:07.941Z,2292
2017-05-04T05:29:18.016Z,2284
2017-05-04T05:30:27.829Z,2220
2017-05-04T05:31:37.449Z,2216
2017-05-04T05:32:47.079Z,2176
2017-05-04T05:33:56.611Z,2024
2017-05-04T05:35:06.699Z,1912
2017-05-04T05:36:16.546Z,1900
2017-05-04T05:37:26.363Z,1872
2017-05-04T05:38:35.883Z,1896
2017-05-04T05:39:45.421Z,1956
2017-05-04T05:40:54.916Z,1860
2017-05-04T05:42:04.417Z,2080
2017-05-04T05:43:13.911Z,2084
2017-05-04T05:44:23.416Z,2032
2017-05-04T05:45:32.307Z,2100
2017-05-04T05:46:42.402Z,1984
2017-05-04T05:47:51.917Z,2236
2017-05-04T05:49:01.733Z,2328
2017-05-04T05:50:11.566Z,2292
2017-05-04T05:51:21.119Z,2376
2017-05-04T05:52:30.552Z,2300
2017-05-04T05:53:40.449Z,2144
2017-05-04T05:54:50.263Z,1928
2017-05-04T05:55:59.463Z,1620
2017-05-04T05:57:09.043Z,1560
2017-05-04T05:58:19.189Z,1680
2017-05-04T05:59:28.732Z,1632
2017-05-04T06:00:38.553Z,1412
2017-05-04T06:01:47.745Z,1484
2017-05-04T06:02:57.256Z,1516
2017-05-04T06:04:07.377Z,1448
2017-05-04T06:05:17.240Z,1576
2017-05-04T06:06:26.768Z,1856
2017-05-04T06:07:36.626Z,1672
2017-05-04T06:08:46.441Z,1816
2017-05-04T06:09:56.649Z,1588
2017-05-04T06:11:06.519Z,1644
2017-05-04T06:12:16.037Z,1932
2017-05-04T06:13:25.567Z,2192
2017-05-04T06:14:34.797Z,2444
2017-05-04T06:15:44.860Z,2528
2017-05-04T06:16:54.361Z,2512
2017-05-04T06:18:03.880Z,2404
2017-05-04T06:19:13.737Z,2316
2017-05-04T06:20:23.589Z,2252
2017-05-04T06:21:33.367Z,2576
2017-05-04T06:22:43.199Z,2712
2017-05-04T06:23:52.718Z,2904
2017-05-04T06:25:01.905Z,2920
2017-05-04T06:26:10.462Z,3248
2017-05-04T06:27:19.939Z,2988
2017-05-04T06:28:29.160Z,2868
2017-05-04T06:29:39.160Z,2884
2017-05-04T06:30:48.979Z,3212
2017-05-04T06:31:58.810Z,2928
2017-05-04T06:33:08.689Z,3020
2017-05-04T06:34:18.258Z,2764
2017-05-04T06:35:27.777Z,2944
2017-05-04T06:36:37.272Z,3096
2017-05-04T06:37:47.228Z,3396
2017-05-04T06:38:57.452Z,3260
2017-05-04T06:40:07.314Z,2852
2017-05-04T06:41:17.141Z,2520
2017-05-04T06:42:26.664Z,2972
2017-05-04T06:43:36.561Z,2480
2017-05-04T06:44:46.700Z,2724
2017-05-04T06:45:56.519Z,2964
2017-05-04T06:47:06.339Z,3044
2017-05-04T06:48:16.163Z,3268
2017-05-04T06:49:25.981Z,3284
2017-05-04T06:50:36.090Z,3416
2017-05-04T06:51:46.118Z,3172
2017-05-04T06:52:55.999Z,3224
2017-05-04T06:54:05.532Z,3260
2017-05-04T06:55:14.755Z,2968
2017-05-04T06:56:24.928Z,3068
2017-05-04T06:57:34.440Z,3008
2017-05-04T06:58:44.333Z,2644
2017-05-04T06:59:53.876Z,2292
2017-05-04T07:01:03.706Z,2180
2017-05-04T07:02:13.783Z,2804
2017-05-04T07:03:23.316Z,2652
2017-05-04T07:04:33.196Z,2888
2017-05-04T07:05:43.003Z,2316
2017-05-04T07:06:52.493Z,2440
2017-05-04T07:08:01.624Z,2744
2017-05-04T07:09:11.489Z,3004
2017-05-04T07:10:21.303Z,3084
2017-05-04T07:11:31.116Z,2692
2017-05-04T07:12:40.948Z,2768
2017-05-04T07:13:50.918Z,2684
2017-05-04T07:15:00.772Z,2900
2017-05-04T07:16:10.585Z,3696
2017-05-04T07:17:20.115Z,3956
2017-05-04T07:18:29.927Z,3728
2017-05-04T07:19:39.378Z,4148
2017-05-04T07:20:48.937Z,4796
2017-05-04T07:21:58.134Z,5008
2017-05-04T07:23:07.966Z,4996
2017-05-04T07:24:17.796Z,3240
2017-05-04T07:25:27.898Z,3836
2017-05-04T07:26:37.725Z,4348
2017-05-04T07:27:46.919Z,3736
2017-05-04T07:28:56.147Z,4384
2017-05-04T07:30:05.990Z,3596
2017-05-04T07:31:16.123Z,3752
2017-05-04T07:32:25.954Z,3388
2017-05-04T07:33:35.491Z,4496
2017-05-04T07:34:45.035Z,4652
2017-05-04T07:35:54.864Z,4604
2017-05-04T07:37:04.672Z,4852
2017-05-04T07:38:14.279Z,4384
2017-05-04T07:39:24.105Z,5196
2017-05-04T07:40:33.692Z,4944
2017-05-04T07:41:43.528Z,5184
2017-05-04T07:42:53.659Z,5164
2017-05-04T07:44:03.164Z,5044
2017-05-04T07:45:13.000Z,4204
2017-05-04T07:46:22.806Z,5296
2017-05-04T07:47:32.646Z,4232
2017-05-04T07:48:42.952Z,4792
2017-05-04T07:49:52.772Z,3984
2017-05-04T07:51:02.589Z,4048
2017-05-04T07:52:12.411Z,3596
2017-05-04T07:53:21.628Z,3676
2017-05-04T07:54:31.716Z,3996
2017-05-04T07:55:41.562Z,5240
2017-05-04T07:56:51.168Z,5160
2017-05-04T07:58:00.994Z,5460
2017-05-04T07:59:10.603Z,3192
2017-05-04T08:00:20.583Z,4648
2017-05-04T08:01:30.101Z,3692
2017-05-04T08:02:39.609Z,4088
2017-05-04T08:03:49.146Z,3612
2017-05-04T08:04:58.982Z,4508
2017-05-04T08:06:08.793Z,4156
2017-05-04T08:07:18.629Z,5272
2017-05-04T08:08:28.148Z,5088
2017-05-04T08:09:37.953Z,5752
2017-05-04T08:10:47.906Z,6132
2017-05-04T08:11:58.054Z,4324
2017-05-04T08:13:07.563Z,5164
2017-05-04T08:14:17.409Z,4908
2017-05-04T08:15:26.913Z,4580
2017-05-04T08:16:36.753Z,4412
2017-05-04T08:17:46.199Z,3912
2017-05-04T08:18:56.021Z,4532
2017-05-04T08:20:05.531Z,4964
2017-05-04T08:21:15.420Z,5008
2017-05-04T08:22:25.245Z,5300
2017-05-04T08:23:35.314Z,5352
2017-05-04T08:24:45.132Z,5216
2017-05-04T08:25:54.630Z,4240
2017-05-04T08:27:04.278Z,3684
2017-05-04T08:28:14.106Z,3480
2017-05-04T08:29:23.863Z,3508
2017-05-04T08:30:33.436Z,4488
2017-05-04T08:31:42.944Z,4904
2017-05-04T08:32:52.764Z,3880
2017-05-04T08:34:02.676Z,5008
2017-05-04T08:35:12.492Z,5248
2017-05-04T08:36:22.315Z,5328
2017-05-04T08:37:32.123Z,4968
2017-05-04T08:38:41.326Z,5156
2017-05-04T08:39:51.189Z,4544
2017-05-04T08:41:01.249Z,5400
2017-05-04T08:42:10.758Z,5492
2017-05-04T08:43:20.649Z,4988
2017-05-04T08:44:30.466Z,5412
2017-05-04T08:45:40.296Z,4924
2017-05-04T08:46:50.552Z,4256
2017-05-04T08:48:00.075Z,4356
2017-05-04T08:49:09.610Z,3488
2017-05-04T08:50:18.842Z,4380
2017-05-04T08:51:28.646Z,4616
2017-05-04T08:52:38.746Z,4756
2017-05-04T08:53:48.679Z,3804
2017-05-04T08:54:58.498Z,3916
2017-05-04T08:56:08.032Z,3904
2017-05-04T08:57:17.949Z,3400
2017-05-04T08:58:27.706Z,3528
2017-05-04T08:59:36.588Z,3544
2017-05-04T09:00:46.088Z,3592
2017-05-04T09:01:55.937Z,3780
2017-05-04T09:03:05.122Z,3656
2017-05-04T09:04:15.237Z,3568
2017-05-04T09:05:25.345Z,3272
2017-05-04T09:06:34.530Z,3068
2017-05-04T09:07:44.381Z,3180
2017-05-04T09:08:54.221Z,3244
2017-05-04T09:10:04.348Z,3296
2017-05-04T09:11:13.875Z,3508
2017-05-04T09:12:23.775Z,3320
2017-05-04T09:13:33.306Z,3316
2017-05-04T09:14:42.821Z,3292
2017-05-04T09:15:52.568Z,3488
2017-05-04T09:17:02.413Z,2868
2017-05-04T09:18:11.608Z,3036
2017-05-04T09:19:21.144Z,2752
2017-05-04T09:20:31.058Z,3548
2017-05-04T09:21:40.807Z,3740
2017-05-04T09:22:50.743Z,3796
2017-05-04T09:24:00.053Z,3640
2017-05-04T09:25:09.561Z,3240
2017-05-04T09:26:19.088Z,3644
2017-05-04T09:27:29.153Z,3580
2017-05-04T09:28:39.035Z,3188
2017-05-04T09:29:48.597Z,3612
2017-05-04T09:30:58.409Z,3332
2017-05-04T09:32:07.929Z,3572
2017-05-04T09:33:17.673Z,4028
2017-05-04T09:34:27.537Z,4236
2017-05-04T09:35:37.057Z,3892
2017-05-04T09:36:46.923Z,3400
2017-05-04T09:37:56.736Z,4408
2017-05-04T09:39:06.856Z,4676
2017-05-04T09:40:16.668Z,4208
2017-05-04T09:41:25.862Z,3952
2017-05-04T09:42:35.681Z,4756
2017-05-04T09:43:45.510Z,4920
2017-05-04T09:44:55.605Z,4992
2017-05-04T09:46:05.141Z,6432
2017-05-04T09:47:14.954Z,5244
2017-05-04T09:48:24.805Z,5648
2017-05-04T09:49:34.637Z,5832
2017-05-04T09:50:44.741Z,6064
2017-05-04T09:51:54.579Z,6072
2017-05-04T09:53:04.396Z,5052
2017-05-04T09:54:13.927Z,6016
2017-05-04T09:55:23.753Z,4936
2017-05-04T09:56:33.551Z,6672
2017-05-04T09:57:43.056Z,5652
2017-05-04T09:58:52.249Z,6236
2017-05-04T10:00:02.136Z,4984
2017-05-04T10:01:11.644Z,5808
2017-05-04T10:02:21.713Z,5632
2017-05-04T10:03:30.903Z,5168
2017-05-04T10:04:40.413Z,4776
2017-05-04T10:05:49.979Z,5788
2017-05-04T10:06:59.485Z,5684
2017-05-04T10:08:09.615Z,5896
2017-05-04T10:09:19.439Z,7728
2017-05-04T10:10:29.287Z,6420
2017-05-04T10:11:38.783Z,7836
2017-05-04T10:12:48.006Z,7536
2017-05-04T10:13:58.206Z,8284
2017-05-04T10:15:08.077Z,7408
2017-05-04T10:16:17.916Z,7640
2017-05-04T10:17:27.742Z,5592
2017-05-04T10:18:37.562Z,7160
2017-05-04T10:19:47.333Z,6252
2017-05-04T10:20:57.231Z,4568
2017-05-04T10:22:07.041Z,5336
2017-05-04T10:23:16.549Z,5876
2017-05-04T10:24:26.363Z,5288
2017-05-04T10:25:36.136Z,4980
2017-05-04T10:26:45.969Z,5208
2017-05-04T10:27:56.021Z,4796
2017-05-04T10:29:05.858Z,4920
2017-05-04T10:30:15.666Z,6648
2017-05-04T10:31:25.428Z,6356
2017-05-04T10:32:34.304Z,5220
2017-05-04T10:33:43.504Z,5624
2017-05-04T10:34:52.715Z,6180
2017-05-04T10:36:02.589Z,6116
2017-05-04T10:37:12.829Z,7152
2017-05-04T10:38:21.720Z,6696
2017-05-04T10:39:31.223Z,7684
2017-05-04T10:40:41.040Z,6528
2017-05-04T10:41:50.584Z,7856
2017-05-04T10:43:00.648Z,6340
2017-05-04T10:44:10.474Z,8996
2017-05-04T10:45:20.292Z,7112
2017-05-04T10:46:29.873Z,6364
2017-05-04T10:47:39.368Z,7768
2017-05-04T10:48:49.198Z,6832
2017-05-04T10:49:59.156Z,5084
2017-05-04T10:51:08.973Z,6892
2017-05-04T10:52:18.618Z,7880
2017-05-04T10:53:28.466Z,7916
2017-05-04T10:54:38.526Z,7348
2017-05-04T10:55:48.439Z,6720
2017-05-04T10:56:58.289Z,8100
2017-05-04T10:58:07.811Z,8060
2017-05-04T10:59:17.015Z,8500
2017-05-04T11:00:27.181Z,9740
2017-05-04T11:01:37.006Z,9040
2017-05-04T11:02:46.832Z,7456
2017-05-04T11:03:56.664Z,8640
2017-05-04T11:05:06.493Z,7616
2017-05-04T11:06:16.595Z,5388
2017-05-04T11:07:26.420Z,5440
2017-05-04T11:08:36.253Z,6320
2017-05-04T11:09:45.533Z,6200
2017-05-04T11:10:54.721Z,5080
2017-05-04T11:12:04.828Z,5440
2017-05-04T11:13:14.754Z,4800
2017-05-04T11:14:24.606Z,4968
2017-05-04T11:15:34.143Z,5228
2017-05-04T11:16:43.961Z,5304
2017-05-04T11:17:54.076Z,6088
2017-05-04T11:19:03.428Z,5296
2017-05-04T11:20:12.942Z,5500
2017-05-04T11:21:22.480Z,5232
2017-05-04T11:22:32.305Z,3432
2017-05-04T11:23:42.379Z,4196
2017-05-04T11:24:51.883Z,4804
2017-05-04T11:26:01.400Z,4732
2017-05-04T11:27:11.252Z,3928
2017-05-04T11:28:21.106Z,4244
2017-05-04T11:29:31.246Z,4264
2017-05-04T11:30:40.432Z,3776
2017-05-04T11:31:50.238Z,3728
2017-05-04T11:32:59.433Z,3688
2017-05-04T11:34:09.250Z,4096
2017-05-04T11:35:18.686Z,3856
2017-05-04T11:36:28.599Z,4140
2017-05-04T11:37:38.419Z,4140
2017-05-04T11:38:47.958Z,5252
2017-05-04T11:39:57.780Z,4136
2017-05-04T11:41:07.916Z,4860
2017-05-04T11:42:17.725Z,5744
2017-05-04T11:43:27.620Z,5444
2017-05-04T11:44:37.163Z,5836
2017-05-04T11:45:46.699Z,5656
2017-05-04T11:46:56.805Z,5724
2017-05-04T11:48:06.367Z,6528
2017-05-04T11:49:15.557Z,6532
2017-05-04T11:50:24.733Z,6568
2017-05-04T11:51:34.645Z,7272
2017-05-04T11:52:44.793Z,7244
2017-05-04T11:53:54.628Z,6056
2017-05-04T11:55:04.477Z,5548
2017-05-04T11:56:14.321Z,6080
2017-05-04T11:57:23.829Z,5508
2017-05-04T11:58:33.608Z,5968
2017-05-04T11:59:43.112Z,6828
2017-05-04T12:00:52.986Z,5640
2017-05-04T12:02:02.808Z,5552
2017-05-04T12:03:12.629Z,6168
2017-05-04T12:04:22.074Z,5716
2017-05-04T12:05:31.586Z,6252
2017-05-04T12:06:41.123Z,7116
2017-05-04T12:07:50.657Z,7280
2017-05-04T12:09:00.467Z,6128
2017-05-04T12:10:09.921Z,4952
2017-05-04T12:11:19.730Z,4920
2017-05-04T12:12:29.239Z,4404
2017-05-04T12:13:39.065Z,3972
2017-05-04T12:14:48.889Z,4132
2017-05-04T12:15:58.417Z,4768
2017-05-04T12:17:07.923Z,5312
2017-05-04T12:18:17.426Z,5876
2017-05-04T12:19:27.323Z,6048
2017-05-04T12:20:36.867Z,6192
2017-05-04T12:21:47.050Z,6560
2017-05-04T12:22:56.643Z,4776
2017-05-04T12:24:06.457Z,4652
2017-05-04T12:25:16.295Z,5644
2017-05-04T12:26:25.824Z,4828
2017-05-04T12:27:35.916Z,4912
2017-05-04T12:28:45.738Z,5096
2017-05-04T12:29:55.254Z,4604
2017-05-04T12:31:05.079Z,5028
2017-05-04T12:32:14.899Z,4780
2017-05-04T12:33:24.654Z,4288
2017-05-04T12:34:34.515Z,5780
2017-05-04T12:35:44.383Z,4588
2017-05-04T12:36:54.209Z,4424
2017-05-04T12:38:03.714Z,3980
2017-05-04T12:39:13.782Z,3452
2017-05-04T12:40:23.420Z,3712
2017-05-04T12:41:33.246Z,3744
2017-05-04T12:42:43.064Z,4744
2017-05-04T12:43:52.919Z,3912
2017-05-04T12:45:02.672Z,3572
2017-05-04T12:46:12.554Z,3856
2017-05-04T12:47:22.059Z,4096
2017-05-04T12:48:31.594Z,3780
2017-05-04T12:49:41.202Z,4240
2017-05-04T12:50:51.274Z,4188
2017-05-04T12:52:01.164Z,4056
2017-05-04T12:53:10.374Z,3240
2017-05-04T12:54:19.601Z,3600
2017-05-04T12:55:29.453Z,4972
2017-05-04T12:56:39.526Z,5272
2017-05-04T12:57:49.343Z,5728
2017-05-04T12:58:58.847Z,5348
2017-05-04T13:00:08.385Z,4440
2017-05-04T13:01:18.207Z,4080
2017-05-04T13:02:27.959Z,3572
2017-05-04T13:03:37.485Z,3488
2017-05-04T13:04:47.422Z,3644
2017-05-04T13:05:57.247Z,3836
2017-05-04T13:07:06.448Z,4592
2017-05-04T13:08:16.554Z,4560
2017-05-04T13:09:26.054Z,4328
2017-05-04T13:10:35.247Z,3908
2017-05-04T13:11:44.847Z,4408
2017-05-04T13:12:54.665Z,4368
2017-05-04T13:14:04.426Z,5124
2017-05-04T13:15:13.624Z,6852
2017-05-04T13:16:23.449Z,5240
2017-05-04T13:17:32.990Z,5768
2017-05-04T13:18:42.821Z,5208
2017-05-04T13:19:52.602Z,4520
2017-05-04T13:21:02.423Z,4684
2017-05-04T13:22:12.295Z,4588
2017-05-04T13:23:21.792Z,4364
2017-05-04T13:24:31.602Z,5532
2017-05-04T13:25:41.042Z,5456
2017-05-04T13:26:50.941Z,5764
2017-05-04T13:28:00.767Z,8092
2017-05-04T13:29:09.987Z,7432
2017-05-04T13:30:19.863Z,7792
2017-05-04T13:31:29.954Z,7716
2017-05-04T13:32:39.449Z,4960
2017-05-04T13:33:49.323Z,3752
2017-05-04T13:34:58.517Z,4944
2017-05-04T13:36:08.338Z,4348
2017-05-04T13:37:18.439Z,4272
2017-05-04T13:38:27.949Z,5144
2017-05-04T13:39:37.842Z,4552
2017-05-04T13:40:47.421Z,3704
2017-05-04T13:41:56.920Z,2856
2017-05-04T13:43:06.667Z,4500
2017-05-04T13:44:16.175Z,5872
2017-05-04T13:45:26.236Z,6024
2017-05-04T13:46:35.433Z,6312
2017-05-04T13:47:45.297Z,5040
2017-05-04T13:48:55.045Z,4344
2017-05-04T13:50:04.892Z,6184
2017-05-04T13:51:14.835Z,6448
2017-05-04T13:52:24.502Z,7452
2017-05-04T13:53:34.310Z,6104
2017-05-04T13:54:44.398Z,6692
2017-05-04T13:55:53.904Z,6228
2017-05-04T13:57:03.725Z,6776
2017-05-04T13:58:13.571Z,7924
2017-05-04T13:59:22.768Z,7444
2017-05-04T14:00:32.362Z,7472
2017-05-04T14:01:42.178Z,6928
2017-05-04T14:02:51.688Z,8464
2017-05-04T14:04:01.522Z,9004
2017-05-04T14:05:11.035Z,8520
2017-05-04T14:06:20.495Z,7284
2017-05-04T14:07:30.313Z,7900
2017-05-04T14:08:40.155Z,6932
2017-05-04T14:09:49.657Z,7332
2017-05-04T14:10:59.167Z,6128
2017-05-04T14:12:09.023Z,5756
2017-05-04T14:13:18.889Z,6384
2017-05-04T14:14:28.712Z,8288
2017-05-04T14:15:38.228Z,7132
2017-05-04T14:16:48.067Z,6444
2017-05-04T14:17:57.825Z,6708
2017-05-04T14:19:07.664Z,5064
2017-05-04T14:20:17.186Z,6240
2017-05-04T14:21:27.008Z,6908
2017-05-04T14:22:36.501Z,6656
2017-05-04T14:23:45.943Z,5800
2017-05-04T14:24:55.767Z,5836
2017-05-04T14:26:05.264Z,4536
2017-05-04T14:27:15.140Z,4136
2017-05-04T14:28:24.962Z,4692
2017-05-04T14:29:34.728Z,4084
2017-05-04T14:30:44.540Z,3792
2017-05-04T14:31:53.727Z,4112
2017-05-04T14:33:02.987Z,4220
2017-05-04T14:34:12.824Z,2960
2017-05-04T14:35:22.945Z,4172
2017-05-04T14:36:32.476Z,4024
2017-05-04T14:37:42.316Z,4024
2017-05-04T14:38:52.135Z,5220
2017-05-04T14:40:01.968Z,4528
2017-05-04T14:41:11.732Z,4616
2017-05-04T14:42:21.541Z,3844
2017-05-04T14:43:30.730Z,3244
2017-05-04T14:44:40.584Z,4068
2017-05-04T14:45:50.425Z,4860
2017-05-04T14:47:00.576Z,3760
2017-05-04T14:48:10.156Z,4420
2017-05-04T14:49:19.976Z,3104
2017-05-04T14:50:29.803Z,3160
2017-05-04T14:51:39.023Z,2676
2017-05-04T14:52:48.869Z,3020
2017-05-04T14:53:58.407Z,2400
2017-05-04T14:55:07.972Z,2916
2017-05-04T14:56:17.797Z,2396
2017-05-04T14:57:27.626Z,2632
2017-05-04T14:58:37.713Z,2880
2017-05-04T14:59:47.358Z,3224
2017-05-04T15:00:57.175Z,2696
2017-05-04T15:02:06.769Z,2880
2017-05-04T15:03:16.294Z,2160
2017-05-04T15:04:26.393Z,2112
2017-05-04T15:05:35.906Z,2344
2017-05-04T15:06:45.098Z,2380
2017-05-04T15:07:54.602Z,2540
2017-05-04T15:09:04.472Z,2496
2017-05-04T15:10:14.564Z,2992
2017-05-04T15:11:24.450Z,2988
2017-05-04T15:12:33.962Z,3028
2017-05-04T15:13:43.777Z,2916
2017-05-04T15:14:53.681Z,3376
2017-05-04T15:16:03.836Z,3652
2017-05-04T15:17:13.392Z,2476
2017-05-04T15:18:23.000Z,2380
2017-05-04T15:19:31.878Z,2496
2017-05-04T15:20:40.768Z,2396
2017-05-04T15:21:50.834Z,3724
2017-05-04T15:23:00.658Z,2680
2017-05-04T15:24:10.169Z,2596
2017-05-04T15:25:20.011Z,2368
2017-05-04T15:26:29.836Z,3072
2017-05-04T15:27:39.905Z,2484
2017-05-04T15:28:49.769Z,3436
2017-05-04T15:29:59.618Z,2880
2017-05-04T15:31:09.457Z,2380
2017-05-04T15:32:19.317Z,2300
2017-05-04T15:33:29.397Z,2516
2017-05-04T15:34:38.905Z,2300
2017-05-04T15:35:48.434Z,2416
2017-05-04T15:36:57.957Z,1960
2017-05-04T15:38:07.463Z,2564
2017-05-04T15:39:17.783Z,2604
2017-05-04T15:40:27.877Z,2624
2017-05-04T15:41:37.727Z,2188
2017-05-04T15:42:47.546Z,1944
2017-05-04T15:43:57.079Z,2080
2017-05-04T15:45:07.153Z,2564
2017-05-04T15:46:17.024Z,2136
2017-05-04T15:47:26.244Z,2372
2017-05-04T15:48:36.060Z,2248
2017-05-04T15:49:45.665Z,2116
2017-05-04T15:50:55.416Z,2180
2017-05-04T15:52:04.922Z,2052
2017-05-04T15:53:14.517Z,2028
2017-05-04T15:54:24.325Z,1952
2017-05-04T15:55:33.908Z,2244
2017-05-04T15:56:44.073Z,2004
2017-05-04T15:57:53.602Z,1876
2017-05-04T15:59:03.416Z,1604
2017-05-04T16:00:13.246Z,1552
2017-05-04T16:01:22.754Z,1840
2017-05-04T16:02:32.823Z,1620
2017-05-04T16:03:42.326Z,1764
2017-05-04T16:04:51.534Z,1624
2017-05-04T16:06:01.356Z,1316
2017-05-04T16:07:11.288Z,1556
2017-05-04T16:08:21.469Z,1076
2017-05-04T16:09:31.287Z,1228
2017-05-04T16:10:41.160Z,1980
2017-05-04T16:11:50.664Z,2288
2017-05-04T16:12:59.543Z,2196
2017-05-04T16:14:09.648Z,2312
2017-05-04T16:15:33.414Z,2672
2017-05-04T16:16:53.285Z,2968
2017-05-04T16:18:07.330Z,2168
2017-05-04T16:19:33.723Z,1828
2017-05-04T16:21:20.191Z,1328
2017-05-04T16:22:38.479Z,1160
2017-05-04T16:23:55.927Z,988
2017-05-04T16:25:18.155Z,960
2017-05-04T16:26:35.162Z,1144
2017-05-04T16:27:54.403Z,856
2017-05-04T16:29:20.679Z,952
2017-05-04T16:30:37.555Z,1012
2017-05-04T16:31:52.563Z,1368
2017-05-04T16:33:06.868Z,1388
2017-05-04T16:34:18.673Z,1264
2017-05-04T16:35:31.768Z,1648
2017-05-04T16:36:41.284Z,1768
2017-05-04T16:37:51.117Z,1668
2017-05-04T16:39:00.936Z,1452
2017-05-04T16:40:14.499Z,1500
2017-05-04T16:41:29.786Z,1416
2017-05-04T16:42:41.421Z,1336
2017-05-04T16:43:57.137Z,1008
2017-05-04T16:45:10.962Z,1104
2017-05-04T16:46:21.081Z,864
2017-05-04T16:47:31.169Z,856
2017-05-04T16:48:40.902Z,992